aviador You're here:

YSDU Decoded Metar

DUBBO in AUSTRALIA
Report Time2018-05-26 17:00:00
UTC Time2018-05-26 17:27:59
Flight Rules vfr VFR
Wind130° at 08 kt
W.Decomp.*RWY 11: 7.9 kt HW 1.4 kt RCW
RWY 05: 2.7 kt HW 7.5 kt RCW
W.Rank130° ranks 6
Current wind is above 130° avg. (7.0)
Visibility9999 m
Phenomena:N/A
Clouds:N/A
Expected CloudBase > 1,200 ft AGL from Temp-Dew spread
CeilingNone
Temp07°C (ISA -6)
Dew Point04°C (81% RH)
AAT2.8°C
QNH1026 hPa
Density Alt-171 ft
Elevation902 ft
Report Wrong Elevation
Raw Report
YSDU 261700Z AUTO 13008KT 9999 // NCD 07/04 Q1026=

Extra information for YSDU:More info

Metar Taf Metar & Taf Last 4 Metars F.Rules Stats Wind Profile Meteogram Temp Stats Airport Information Weather charts Add Link Nearby VenuesMetar ALERT Operation Metar Decoded Social comments